createdAt,value
2019-02-23T19:02:32.688Z,11.68
2019-02-23T19:04:59.967Z,11.73
2019-02-23T19:07:27.201Z,12.20
2019-02-23T19:09:54.282Z,11.68
2019-02-23T19:12:21.525Z,11.45
2019-02-23T19:14:48.554Z,11.68
2019-02-23T19:17:15.589Z,13.35
2019-02-23T19:19:42.640Z,14.23
2019-02-23T19:22:11.019Z,14.40
2019-02-23T19:24:38.352Z,15.48
2019-02-23T19:27:06.241Z,13.68
2019-02-23T19:29:33.316Z,16.37
2019-02-23T19:32:00.445Z,12.75
2019-02-23T19:34:28.103Z,15.18
2019-02-23T19:36:55.150Z,13.88
2019-02-23T19:39:22.450Z,15.05
2019-02-23T19:41:50.014Z,14.30
2019-02-23T19:44:17.197Z,14.53
2019-02-23T19:46:47.819Z,15.98
2019-02-23T19:49:14.962Z,15.50
2019-02-23T19:51:42.214Z,15.28
2019-02-23T19:54:09.492Z,15.60
2019-02-23T19:56:36.964Z,15.40
2019-02-23T19:59:04.104Z,15.85
2019-02-23T20:01:31.490Z,16.32
2019-02-23T20:03:58.684Z,16.85
2019-02-23T20:06:25.928Z,16.20
2019-02-23T20:08:53.529Z,16.65
2019-02-23T20:11:21.766Z,17.35
2019-02-23T20:13:53.230Z,15.00
2019-02-23T20:18:48.250Z,14.93
2019-02-23T20:21:16.181Z,14.90
2019-02-23T20:23:43.567Z,15.32
2019-02-23T20:26:10.622Z,14.70
2019-02-23T20:28:38.880Z,14.55
2019-02-23T20:31:06.219Z,14.53
2019-02-23T20:33:33.591Z,15.00
2019-02-23T20:36:01.965Z,15.23
2019-02-23T20:38:29.618Z,15.63
2019-02-23T20:40:56.767Z,17.42
2019-02-23T20:43:27.080Z,15.88
2019-02-23T20:45:54.442Z,15.90
2019-02-23T20:48:21.936Z,15.45
2019-02-23T20:50:49.253Z,17.25
2019-02-23T20:53:16.721Z,16.30
2019-02-23T20:55:43.950Z,16.90
2019-02-23T20:58:11.204Z,15.72
2019-02-23T21:00:38.679Z,14.55
2019-02-23T21:03:06.347Z,15.08
2019-02-23T21:05:33.565Z,15.43
2019-02-23T21:08:00.798Z,15.63
2019-02-23T21:10:28.409Z,14.47
2019-02-23T21:12:55.900Z,14.38
2019-02-23T21:15:23.097Z,13.75
2019-02-23T21:17:50.891Z,13.98
2019-02-23T21:20:18.224Z,13.10
2019-02-23T21:22:45.996Z,13.80
2019-02-23T21:25:13.763Z,13.30
2019-02-23T21:27:41.159Z,13.65
2019-02-23T21:30:09.588Z,14.75
2019-02-23T21:32:36.977Z,12.78
2019-02-23T21:35:05.335Z,12.82
2019-02-23T21:37:33.790Z,13.72
2019-02-23T21:40:01.002Z,13.93
2019-02-23T21:42:30.929Z,14.07
2019-02-23T21:44:58.374Z,14.30
2019-02-23T21:47:26.075Z,16.12
2019-02-23T21:49:53.712Z,15.65
2019-02-23T21:52:20.876Z,17.05
2019-02-23T21:54:48.228Z,16.25
2019-02-23T21:57:21.942Z,15.88
2019-02-23T21:59:45.780Z,16.82
2019-02-23T22:02:13.115Z,16.52
2019-02-23T22:04:40.165Z,16.70
2019-02-23T22:07:08.065Z,18.87
2019-02-23T22:09:36.040Z,19.50
2019-02-23T22:12:03.178Z,19.17
2019-02-23T22:14:30.837Z,19.40
2019-02-23T22:16:57.865Z,19.62
2019-02-23T22:19:25.261Z,20.62
2019-02-23T22:21:52.877Z,21.02
2019-02-23T22:24:20.474Z,21.40
2019-02-23T22:26:48.156Z,19.65
2019-02-23T22:29:15.542Z,19.05
2019-02-23T22:31:44.002Z,19.32
2019-02-23T22:34:11.637Z,20.57
2019-02-23T22:36:39.046Z,19.48
2019-02-23T22:39:07.251Z,20.10
2019-02-23T22:41:35.199Z,20.27
2019-02-23T22:44:02.348Z,19.92
2019-02-23T22:46:30.587Z,20.62
2019-02-23T22:48:57.993Z,18.92
2019-02-23T22:51:25.392Z,19.15
2019-02-23T22:53:53.323Z,18.85
2019-02-23T22:56:20.554Z,18.35
2019-02-23T22:58:47.758Z,18.57
2019-02-23T23:01:15.969Z,18.35
2019-02-23T23:03:44.920Z,17.52
2019-02-23T23:06:12.504Z,18.05
2019-02-23T23:08:40.034Z,16.90
2019-02-23T23:11:07.638Z,16.62
2019-02-23T23:13:35.158Z,17.32
2019-02-23T23:19:49.117Z,15.88
2019-02-23T23:22:16.917Z,17.00
2019-02-23T23:24:44.882Z,17.20
2019-02-23T23:27:12.719Z,16.57
2019-02-23T23:29:40.420Z,16.45
2019-02-23T23:32:07.558Z,17.75
2019-02-23T23:34:35.802Z,18.27
2019-02-23T23:37:03.153Z,18.95
2019-02-23T23:39:33.592Z,18.62
2019-02-23T23:42:00.820Z,18.48
2019-02-23T23:44:28.378Z,18.10
2019-02-23T23:46:56.103Z,18.90
2019-02-23T23:49:23.287Z,19.77
2019-02-23T23:51:50.748Z,18.05
2019-02-23T23:54:18.246Z,17.85
2019-02-23T23:56:46.003Z,19.05
2019-02-23T23:59:13.527Z,19.67
